createdAt,value
2019-03-27T00:00:20.673Z,99466.00
2019-03-27T00:02:50.014Z,99451.00
2019-03-27T00:05:19.544Z,99454.00
2019-03-27T00:07:48.817Z,99452.00
2019-03-27T00:10:18.095Z,99451.00
2019-03-27T00:12:47.630Z,99453.00
2019-03-27T00:15:17.324Z,99460.00
2019-03-27T00:17:46.594Z,99464.00
2019-03-27T00:20:17.275Z,99451.00
2019-03-27T00:22:46.554Z,99450.00
2019-03-27T00:25:15.818Z,99455.00
2019-03-27T00:27:45.484Z,99451.00
2019-03-27T00:30:15.605Z,99455.00
2019-03-27T00:32:44.869Z,99454.00
2019-03-27T00:35:14.141Z,99438.00
2019-03-27T00:37:43.420Z,99450.00
2019-03-27T00:40:13.109Z,99449.00
2019-03-27T00:42:42.378Z,99446.00
2019-03-27T00:45:25.437Z,99449.00
2019-03-27T00:47:42.725Z,99446.00
2019-03-27T00:50:12.571Z,99444.00
2019-03-27T00:52:41.834Z,99454.00
2019-03-27T00:55:12.097Z,99449.00
2019-03-27T00:57:41.362Z,99444.00
2019-03-27T01:00:30.415Z,99448.00
2019-03-27T01:02:59.686Z,99441.00
2019-03-27T01:05:28.971Z,99450.00
2019-03-27T01:07:58.553Z,99450.00
2019-03-27T01:10:27.833Z,99454.00
2019-03-27T01:12:57.166Z,99443.00
2019-03-27T01:15:39.098Z,99437.00
2019-03-27T01:17:57.774Z,99428.00
2019-03-27T01:20:27.125Z,99435.00
2019-03-27T01:22:56.713Z,99435.00
2019-03-27T01:25:25.998Z,99436.00
2019-03-27T01:27:55.523Z,99441.00
2019-03-27T01:30:24.802Z,99439.00
2019-03-27T01:32:54.331Z,99434.00
2019-03-27T01:35:23.612Z,99431.00
2019-03-27T01:37:52.878Z,99428.00
2019-03-27T01:40:22.438Z,99434.00
2019-03-27T01:42:51.954Z,99424.00
2019-03-27T01:45:21.231Z,99427.00
2019-03-27T01:47:50.494Z,99422.00
2019-03-27T01:50:20.043Z,99421.00
2019-03-27T01:52:49.310Z,99426.00
2019-03-27T01:55:18.595Z,99420.00
2019-03-27T01:57:47.862Z,99420.00
2019-03-27T02:00:17.377Z,99422.00
2019-03-27T02:02:46.644Z,99423.00
2019-03-27T02:05:15.924Z,99419.00
2019-03-27T02:07:45.194Z,99424.00
2019-03-27T02:10:14.679Z,99417.00
2019-03-27T02:12:43.956Z,99422.00
2019-03-27T02:15:13.574Z,99428.00
2019-03-27T02:17:42.832Z,99428.00
2019-03-27T02:20:12.446Z,99419.00
2019-03-27T02:22:41.709Z,99423.00
2019-03-27T02:25:11.364Z,99421.00
2019-03-27T02:27:40.643Z,99423.00
2019-03-27T02:30:10.333Z,99418.00
2019-03-27T02:32:39.891Z,99420.00
2019-03-27T02:35:09.508Z,99415.00
2019-03-27T02:37:38.790Z,99419.00
2019-03-27T02:40:08.602Z,99419.00
2019-03-27T02:42:37.880Z,99428.00
2019-03-27T02:45:08.013Z,99421.00
2019-03-27T02:47:37.294Z,99420.00
2019-03-27T02:50:07.874Z,99434.00
2019-03-27T02:52:37.143Z,99435.00
2019-03-27T02:55:07.964Z,99431.00
2019-03-27T02:57:37.504Z,99434.00
2019-03-27T03:00:12.543Z,99440.00
2019-03-27T03:02:41.849Z,99438.00
2019-03-27T03:05:11.621Z,99437.00
2019-03-27T03:07:40.870Z,99429.00
2019-03-27T03:10:11.544Z,99439.00
2019-03-27T03:12:40.822Z,99441.00
2019-03-27T03:15:11.031Z,99432.00
2019-03-27T03:17:40.609Z,99432.00
2019-03-27T03:20:10.384Z,99439.00
2019-03-27T03:22:39.668Z,99422.00
2019-03-27T03:25:09.088Z,99421.00
2019-03-27T03:27:38.370Z,99423.00
2019-03-27T03:30:10.327Z,99424.00
2019-03-27T03:32:39.750Z,99419.00
2019-03-27T03:35:10.887Z,99421.00
2019-03-27T03:37:40.188Z,99426.00
2019-03-27T03:40:09.986Z,99427.00
2019-03-27T03:42:39.276Z,99433.00
2019-03-27T03:45:08.676Z,99431.00
2019-03-27T03:47:38.198Z,99434.00
2019-03-27T03:50:11.200Z,99433.00
2019-03-27T03:52:45.393Z,99437.00
2019-03-27T03:55:11.746Z,99438.00
2019-03-27T03:57:41.166Z,99436.00
2019-03-27T04:00:10.601Z,99435.00
2019-03-27T04:02:40.593Z,99438.00
2019-03-27T04:05:13.133Z,99431.00
2019-03-27T04:07:42.413Z,99437.00
2019-03-27T04:10:11.751Z,99432.00
2019-03-27T04:12:41.046Z,99431.00
2019-03-27T04:15:10.386Z,99432.00
2019-03-27T04:17:39.664Z,99434.00
2019-03-27T04:20:09.272Z,99440.00
2019-03-27T04:22:38.549Z,99448.00
2019-03-27T04:25:08.684Z,99449.00
2019-03-27T04:27:38.221Z,99448.00
2019-03-27T04:30:08.002Z,99444.00
2019-03-27T04:32:37.279Z,99438.00
2019-03-27T04:35:07.022Z,99443.00
2019-03-27T04:37:36.303Z,99446.00
2019-03-27T04:40:07.081Z,99431.00
2019-03-27T04:42:36.372Z,99436.00
2019-03-27T04:45:06.779Z,99435.00
2019-03-27T04:47:36.046Z,99437.00
2019-03-27T04:50:07.376Z,99435.00
2019-03-27T04:52:36.652Z,99432.00
2019-03-27T04:55:07.840Z,99442.00
2019-03-27T04:57:37.109Z,99445.00
2019-03-27T05:00:10.063Z,99438.00
2019-03-27T05:02:39.327Z,99443.00
2019-03-27T05:05:08.746Z,99446.00
2019-03-27T05:07:38.012Z,99451.00
2019-03-27T05:10:08.636Z,99465.00
2019-03-27T05:12:38.850Z,99452.00
2019-03-27T05:15:09.068Z,99456.00
2019-03-27T05:17:45.638Z,99455.00
2019-03-27T05:20:09.565Z,99468.00
2019-03-27T05:22:38.951Z,99463.00
2019-03-27T05:25:08.459Z,99476.00
2019-03-27T05:27:37.737Z,99470.00
2019-03-27T05:30:08.150Z,99468.00
2019-03-27T05:32:37.758Z,99469.00
2019-03-27T05:35:08.480Z,99473.00
2019-03-27T05:37:37.743Z,99480.00
2019-03-27T05:40:08.994Z,99473.00
2019-03-27T05:42:38.259Z,99483.00
2019-03-27T05:45:07.874Z,99486.00
2019-03-27T05:47:37.144Z,99478.00
2019-03-27T05:50:07.434Z,99495.00
2019-03-27T05:52:36.702Z,99487.00
2019-03-27T05:55:06.923Z,99489.00
2019-03-27T05:57:36.262Z,99494.00
2019-03-27T06:00:07.360Z,99495.00
2019-03-27T06:02:36.938Z,99488.00
2019-03-27T06:05:06.656Z,99499.00
2019-03-27T06:07:36.254Z,99486.00
2019-03-27T06:10:06.750Z,99490.00
2019-03-27T06:12:36.027Z,99502.00
2019-03-27T06:15:07.425Z,99503.00
2019-03-27T06:17:37.037Z,99499.00
2019-03-27T06:20:08.859Z,99497.00
2019-03-27T06:22:38.406Z,99500.00
2019-03-27T06:25:08.939Z,99511.00
2019-03-27T06:27:38.208Z,99509.00
2019-03-27T06:30:08.107Z,99504.00
2019-03-27T06:32:37.748Z,99505.00
2019-03-27T06:35:08.538Z,99504.00
2019-03-27T06:37:37.811Z,99509.00
2019-03-27T06:40:08.037Z,99507.00
2019-03-27T06:42:38.138Z,99511.00
2019-03-27T06:45:08.101Z,99506.00
2019-03-27T06:47:37.315Z,99511.00
2019-03-27T06:50:07.900Z,99513.00
2019-03-27T06:52:37.179Z,99513.00
2019-03-27T06:55:07.981Z,99510.00
2019-03-27T06:57:37.243Z,99519.00
2019-03-27T07:00:12.146Z,99512.00
2019-03-27T07:02:41.412Z,99518.00
2019-03-27T07:05:11.369Z,99527.00
2019-03-27T07:07:40.891Z,99530.00
2019-03-27T07:10:10.345Z,99523.00
2019-03-27T07:12:39.617Z,99529.00
2019-03-27T07:15:09.234Z,99534.00
2019-03-27T07:17:38.509Z,99538.00
2019-03-27T07:20:08.532Z,99541.00
2019-03-27T07:22:38.096Z,99542.00
2019-03-27T07:25:08.517Z,99541.00
2019-03-27T07:27:37.785Z,99534.00
2019-03-27T07:30:09.208Z,99537.00
2019-03-27T07:32:38.780Z,99546.00
2019-03-27T07:35:08.396Z,99544.00
2019-03-27T07:37:38.002Z,99534.00
2019-03-27T07:40:09.352Z,99542.00
2019-03-27T07:42:38.640Z,99545.00
2019-03-27T07:45:09.528Z,99541.00
2019-03-27T07:47:38.890Z,99545.00
2019-03-27T07:50:08.406Z,99548.00
2019-03-27T07:52:37.694Z,99550.00
2019-03-27T07:55:18.702Z,99551.00
2019-03-27T07:57:38.757Z,99557.00
2019-03-27T08:00:12.747Z,99553.00
2019-03-27T08:02:42.032Z,99557.00
2019-03-27T08:05:11.453Z,99556.00
2019-03-27T08:07:40.742Z,99563.00
2019-03-27T08:10:10.232Z,99569.00
2019-03-27T08:12:39.513Z,99568.00
2019-03-27T08:15:09.498Z,99563.00
2019-03-27T08:17:38.785Z,99570.00
2019-03-27T08:20:08.798Z,99570.00
2019-03-27T08:22:38.087Z,99567.00
2019-03-27T08:25:08.210Z,99572.00
2019-03-27T08:27:37.496Z,99583.00
2019-03-27T08:30:11.022Z,99570.00
2019-03-27T08:32:40.310Z,99572.00
2019-03-27T08:35:09.901Z,99571.00
2019-03-27T08:37:39.188Z,99571.00
2019-03-27T08:40:10.188Z,99571.00
2019-03-27T08:42:39.779Z,99568.00
2019-03-27T08:45:10.211Z,99566.00
2019-03-27T08:47:40.048Z,99567.00
2019-03-27T08:50:12.083Z,99571.00
2019-03-27T08:52:41.368Z,99573.00
2019-03-27T08:55:13.784Z,99570.00
2019-03-27T08:57:42.298Z,99579.00
2019-03-27T09:00:14.611Z,99579.00
2019-03-27T09:02:43.898Z,99580.00
2019-03-27T09:05:13.314Z,99583.00
2019-03-27T09:07:42.601Z,99588.00
2019-03-27T09:10:12.365Z,99584.00
2019-03-27T09:12:41.889Z,99592.00
2019-03-27T09:15:12.506Z,99589.00
2019-03-27T09:17:41.799Z,99595.00
2019-03-27T09:20:11.488Z,99593.00
2019-03-27T09:22:40.810Z,99586.00
2019-03-27T09:25:10.901Z,99575.00
2019-03-27T09:27:40.188Z,99591.00
2019-03-27T09:30:12.951Z,99593.00
2019-03-27T09:32:42.585Z,99591.00
2019-03-27T09:35:12.492Z,99594.00
2019-03-27T09:37:42.112Z,99599.00
2019-03-27T09:40:12.290Z,99607.00
2019-03-27T09:42:41.578Z,99591.00
2019-03-27T09:45:11.994Z,99598.00
2019-03-27T09:47:42.281Z,99592.00
2019-03-27T09:50:11.682Z,99593.00
2019-03-27T09:52:40.967Z,99588.00
2019-03-27T09:55:10.718Z,99594.00
2019-03-27T09:57:40.006Z,99589.00
2019-03-27T10:00:10.601Z,99584.00
2019-03-27T10:02:39.885Z,99580.00
2019-03-27T10:05:09.502Z,99583.00
2019-03-27T10:07:38.795Z,99583.00
2019-03-27T10:10:08.580Z,99577.00
2019-03-27T10:12:37.866Z,99572.00
2019-03-27T10:15:09.051Z,99576.00
2019-03-27T10:17:38.334Z,99579.00
2019-03-27T10:20:07.959Z,99572.00
2019-03-27T10:22:37.265Z,99571.00
2019-03-27T10:25:08.436Z,99570.00
2019-03-27T10:27:37.708Z,99575.00
2019-03-27T10:30:08.191Z,99579.00
2019-03-27T10:32:37.473Z,99575.00
2019-03-27T10:35:07.459Z,99576.00
2019-03-27T10:37:36.748Z,99567.00
2019-03-27T10:40:10.517Z,99566.00
2019-03-27T10:42:39.805Z,99576.00
2019-03-27T10:45:10.412Z,99566.00
2019-03-27T10:47:40.025Z,99572.00
2019-03-27T10:50:17.376Z,99573.00
2019-03-27T10:52:40.842Z,99576.00
2019-03-27T10:55:10.354Z,99574.00
2019-03-27T10:57:39.634Z,99574.00
2019-03-27T11:00:11.153Z,99587.00
2019-03-27T11:02:40.510Z,99577.00
2019-03-27T11:05:10.244Z,99578.00
2019-03-27T11:07:39.537Z,99576.00
2019-03-27T11:10:09.989Z,99574.00
2019-03-27T11:12:39.590Z,99572.00
2019-03-27T11:15:10.466Z,99578.00
2019-03-27T11:17:39.729Z,99575.00
2019-03-27T11:20:09.917Z,99572.00
2019-03-27T11:22:39.184Z,99575.00
2019-03-27T11:25:08.881Z,99562.00
2019-03-27T11:27:38.154Z,99564.00
2019-03-27T11:30:09.639Z,99564.00
2019-03-27T11:32:39.215Z,99576.00
2019-03-27T11:35:09.115Z,99563.00
2019-03-27T11:37:38.383Z,99565.00
2019-03-27T11:40:08.092Z,99563.00
2019-03-27T11:42:37.637Z,99567.00
2019-03-27T11:45:08.248Z,99573.00
2019-03-27T11:47:37.513Z,99579.00
2019-03-27T11:50:10.328Z,99564.00
2019-03-27T11:52:39.594Z,99568.00
2019-03-27T11:55:09.217Z,99570.00
2019-03-27T11:57:38.557Z,99567.00
2019-03-27T12:00:12.154Z,99570.00
2019-03-27T12:02:41.428Z,99565.00
2019-03-27T12:05:10.976Z,99560.00
2019-03-27T12:07:40.249Z,99555.00
2019-03-27T12:10:10.036Z,99557.00
2019-03-27T12:12:39.308Z,99556.00
2019-03-27T12:15:09.701Z,99555.00
2019-03-27T12:17:39.308Z,99548.00
2019-03-27T12:20:08.814Z,99550.00
2019-03-27T12:22:38.425Z,99557.00
2019-03-27T12:25:08.247Z,99549.00
2019-03-27T12:27:37.521Z,99551.00
2019-03-27T12:30:08.540Z,99552.00
2019-03-27T12:32:37.803Z,99549.00
2019-03-27T12:35:07.359Z,99544.00
2019-03-27T12:37:36.624Z,99545.00
2019-03-27T12:40:11.301Z,99541.00
2019-03-27T12:42:37.441Z,99552.00
2019-03-27T12:45:07.757Z,99543.00
2019-03-27T12:47:37.029Z,99546.00
2019-03-27T12:50:08.215Z,99545.00
2019-03-27T12:52:37.551Z,99542.00
2019-03-27T12:55:07.467Z,99547.00
2019-03-27T12:57:36.737Z,99537.00
2019-03-27T13:00:11.124Z,99541.00
2019-03-27T13:02:40.399Z,99538.00
2019-03-27T13:05:09.742Z,99542.00
2019-03-27T13:07:49.496Z,99543.00
2019-03-27T13:10:10.623Z,99541.00
2019-03-27T13:12:39.895Z,99535.00
2019-03-27T13:15:09.339Z,99533.00
2019-03-27T13:17:38.669Z,99538.00
2019-03-27T13:20:09.128Z,99537.00
2019-03-27T13:22:38.685Z,99530.00
2019-03-27T13:25:08.664Z,99525.00
2019-03-27T13:27:38.572Z,99531.00
2019-03-27T13:30:09.916Z,99529.00
2019-03-27T13:32:39.193Z,99518.00
2019-03-27T13:35:08.912Z,99525.00
2019-03-27T13:37:38.188Z,99523.00
2019-03-27T13:40:10.036Z,99526.00
2019-03-27T13:42:39.303Z,99517.00
2019-03-27T13:45:09.494Z,99525.00
2019-03-27T13:47:38.782Z,99519.00
2019-03-27T13:50:13.098Z,99513.00
2019-03-27T13:52:42.665Z,99512.00
2019-03-27T13:55:12.067Z,99510.00
2019-03-27T13:57:41.420Z,99519.00
2019-03-27T14:00:14.307Z,99517.00
2019-03-27T14:02:43.587Z,99511.00
2019-03-27T14:05:13.544Z,99513.00
2019-03-27T14:07:42.829Z,99522.00
2019-03-27T14:10:12.358Z,99506.00
2019-03-27T14:12:41.876Z,99513.00
2019-03-27T14:15:12.058Z,99504.00
2019-03-27T14:17:41.674Z,99505.00
2019-03-27T14:20:13.420Z,99504.00
2019-03-27T14:22:42.767Z,99503.00
2019-03-27T14:25:12.549Z,99500.00
2019-03-27T14:27:45.068Z,99493.00
2019-03-27T14:30:17.096Z,99500.00
2019-03-27T14:32:46.370Z,99494.00
2019-03-27T14:35:15.640Z,99483.00
2019-03-27T14:37:45.183Z,99493.00
2019-03-27T14:40:14.520Z,99486.00
2019-03-27T14:42:43.800Z,99489.00
2019-03-27T14:45:15.087Z,99489.00
2019-03-27T14:47:44.362Z,99483.00
2019-03-27T14:50:13.711Z,99495.00
2019-03-27T14:52:42.991Z,99487.00
2019-03-27T14:55:13.147Z,99494.00
2019-03-27T14:57:42.425Z,99501.00
2019-03-27T15:00:12.597Z,99494.00
2019-03-27T15:02:42.186Z,99497.00
2019-03-27T15:05:11.940Z,99502.00
2019-03-27T15:07:41.216Z,99498.00
2019-03-27T15:10:11.011Z,99504.00
2019-03-27T15:12:40.560Z,99508.00
2019-03-27T15:15:11.453Z,99502.00
2019-03-27T15:17:41.066Z,99504.00
2019-03-27T15:20:10.991Z,99505.00
2019-03-27T15:22:40.272Z,99509.00
2019-03-27T15:25:09.978Z,99512.00
2019-03-27T15:27:39.260Z,99501.00
2019-03-27T15:30:13.812Z,99509.00
2019-03-27T15:32:43.417Z,99501.00
2019-03-27T15:35:12.684Z,99508.00
2019-03-27T15:37:42.002Z,99501.00
2019-03-27T15:40:12.198Z,99504.00
2019-03-27T15:42:41.641Z,99500.00
2019-03-27T15:45:12.236Z,99504.00
2019-03-27T15:47:41.520Z,99506.00
2019-03-27T15:50:10.923Z,99504.00
2019-03-27T15:52:40.201Z,99502.00
2019-03-27T15:55:09.603Z,99508.00
2019-03-27T15:57:38.882Z,99501.00
2019-03-27T16:00:08.988Z,99491.00
2019-03-27T16:02:38.271Z,99498.00
2019-03-27T16:05:07.677Z,99496.00
2019-03-27T16:07:36.958Z,99499.00
2019-03-27T16:10:08.132Z,99504.00
2019-03-27T16:12:37.417Z,99500.00
2019-03-27T16:15:10.693Z,99498.00
2019-03-27T16:17:39.931Z,99498.00
2019-03-27T16:20:10.261Z,99499.00
2019-03-27T16:22:49.993Z,99502.00
2019-03-27T16:25:10.981Z,99502.00
2019-03-27T16:27:40.255Z,99509.00
2019-03-27T16:30:10.685Z,99505.00
2019-03-27T16:32:39.911Z,99506.00
2019-03-27T16:35:09.593Z,99508.00
2019-03-27T16:37:38.873Z,99517.00
2019-03-27T16:40:08.415Z,99512.00
2019-03-27T16:42:37.954Z,99516.00
2019-03-27T16:45:08.486Z,99516.00
2019-03-27T16:47:37.904Z,99512.00
2019-03-27T16:50:09.152Z,99516.00
2019-03-27T16:52:38.432Z,99515.00
2019-03-27T16:55:10.999Z,99522.00
2019-03-27T16:57:40.621Z,99530.00
2019-03-27T17:00:10.840Z,99525.00
2019-03-27T17:02:40.115Z,99527.00
2019-03-27T17:05:09.789Z,99527.00
2019-03-27T17:07:39.068Z,99528.00
2019-03-27T17:10:08.771Z,99533.00
2019-03-27T17:12:38.052Z,99529.00
2019-03-27T17:15:07.928Z,99534.00
2019-03-27T17:17:37.210Z,99531.00
2019-03-27T17:20:09.920Z,99538.00
2019-03-27T17:22:39.199Z,99543.00
2019-03-27T17:25:09.874Z,99542.00
2019-03-27T17:27:39.421Z,99543.00
2019-03-27T17:30:13.238Z,99549.00
2019-03-27T17:32:42.525Z,99547.00
2019-03-27T17:35:11.873Z,99560.00
2019-03-27T17:37:41.158Z,99562.00
2019-03-27T17:40:10.699Z,99554.00
2019-03-27T17:42:39.976Z,99554.00
2019-03-27T17:45:09.584Z,99553.00
2019-03-27T17:47:38.872Z,99557.00
2019-03-27T17:50:08.948Z,99557.00
2019-03-27T17:52:38.554Z,99563.00
2019-03-27T17:55:09.802Z,99565.00
2019-03-27T17:57:39.101Z,99568.00
2019-03-27T18:00:11.048Z,99572.00
2019-03-27T18:02:40.316Z,99569.00
2019-03-27T18:05:09.963Z,99574.00
2019-03-27T18:07:39.235Z,99579.00
2019-03-27T18:10:08.956Z,99574.00
2019-03-27T18:12:38.216Z,99578.00
2019-03-27T18:15:09.242Z,99582.00
2019-03-27T18:17:38.753Z,99579.00
2019-03-27T18:20:08.541Z,99582.00
2019-03-27T18:22:37.812Z,99587.00
2019-03-27T18:25:07.156Z,99591.00
2019-03-27T18:27:36.428Z,99586.00
2019-03-27T18:30:08.215Z,99587.00
2019-03-27T18:32:37.489Z,99593.00
2019-03-27T18:35:08.047Z,99606.00
2019-03-27T18:37:37.629Z,99606.00
2019-03-27T18:40:08.548Z,99603.00
2019-03-27T18:42:37.819Z,99602.00
2019-03-27T18:45:09.176Z,99604.00
2019-03-27T18:47:38.443Z,99613.00
2019-03-27T18:50:09.171Z,99617.00
2019-03-27T18:52:38.446Z,99615.00
2019-03-27T18:55:08.165Z,99620.00
2019-03-27T18:57:37.437Z,99624.00
2019-03-27T19:00:09.492Z,99625.00
2019-03-27T19:02:38.761Z,99626.00
2019-03-27T19:05:08.851Z,99627.00
2019-03-27T19:07:38.128Z,99629.00
2019-03-27T19:10:08.475Z,99626.00
2019-03-27T19:12:37.742Z,99625.00
2019-03-27T19:15:09.259Z,99630.00
2019-03-27T19:17:38.822Z,99641.00
2019-03-27T19:20:08.525Z,99643.00
2019-03-27T19:22:37.812Z,99646.00
2019-03-27T19:25:08.317Z,99640.00
2019-03-27T19:27:37.592Z,99649.00
2019-03-27T19:30:09.220Z,99642.00
2019-03-27T19:32:38.493Z,99641.00
2019-03-27T19:35:07.949Z,99650.00
2019-03-27T19:37:37.549Z,99643.00
2019-03-27T19:40:08.003Z,99651.00
2019-03-27T19:42:37.426Z,99651.00
2019-03-27T19:45:08.212Z,99653.00
2019-03-27T19:47:37.552Z,99648.00
2019-03-27T19:50:07.940Z,99655.00
2019-03-27T19:52:37.522Z,99648.00
2019-03-27T19:55:07.231Z,99659.00
2019-03-27T19:57:36.503Z,99655.00
2019-03-27T20:00:09.130Z,99657.00
2019-03-27T20:02:38.477Z,99661.00
2019-03-27T20:05:10.124Z,99661.00
2019-03-27T20:07:39.349Z,99664.00
2019-03-27T20:10:11.484Z,99663.00
2019-03-27T20:12:41.040Z,99666.00
2019-03-27T20:15:12.777Z,99668.00
2019-03-27T20:17:42.044Z,99674.00
2019-03-27T20:20:11.651Z,99673.00
2019-03-27T20:22:40.928Z,99675.00
2019-03-27T20:25:10.612Z,99680.00
2019-03-27T20:27:39.883Z,99668.00
2019-03-27T20:30:15.976Z,99670.00
2019-03-27T20:32:45.251Z,99670.00
2019-03-27T20:35:14.534Z,99665.00
2019-03-27T20:37:43.800Z,99664.00
2019-03-27T20:40:13.791Z,99665.00
2019-03-27T20:42:43.058Z,99668.00
2019-03-27T20:45:13.922Z,99663.00
2019-03-27T20:47:43.191Z,99662.00
2019-03-27T20:50:13.034Z,99660.00
2019-03-27T20:52:42.642Z,99665.00
2019-03-27T20:55:13.021Z,99666.00
2019-03-27T20:57:42.283Z,99659.00
2019-03-27T21:00:12.276Z,99662.00
2019-03-27T21:02:41.791Z,99662.00
2019-03-27T21:05:11.505Z,99664.00
2019-03-27T21:07:41.110Z,99670.00
2019-03-27T21:10:11.729Z,99668.00
2019-03-27T21:12:41.018Z,99669.00
2019-03-27T21:15:10.409Z,99674.00
2019-03-27T21:17:39.683Z,99675.00
2019-03-27T21:20:10.602Z,99678.00
2019-03-27T21:22:39.865Z,99674.00
2019-03-27T21:25:09.855Z,99668.00
2019-03-27T21:27:39.228Z,99675.00
2019-03-27T21:30:11.131Z,99667.00
2019-03-27T21:32:40.704Z,99676.00
2019-03-27T21:35:10.052Z,99683.00
2019-03-27T21:37:39.312Z,99684.00
2019-03-27T21:40:09.399Z,99690.00
2019-03-27T21:42:38.749Z,99682.00
2019-03-27T21:45:09.100Z,99687.00
2019-03-27T21:47:38.654Z,99678.00
2019-03-27T21:50:09.324Z,99673.00
2019-03-27T21:52:38.584Z,99682.00
2019-03-27T21:55:21.827Z,99683.00
2019-03-27T21:57:40.476Z,99679.00
2019-03-27T22:00:10.737Z,99682.00
2019-03-27T22:02:40.010Z,99693.00
2019-03-27T22:05:10.115Z,99683.00
2019-03-27T22:07:39.384Z,99690.00
2019-03-27T22:10:08.885Z,99683.00
2019-03-27T22:12:38.741Z,99693.00
2019-03-27T22:15:09.481Z,99688.00
2019-03-27T22:17:38.742Z,99684.00
2019-03-27T22:20:09.363Z,99690.00
2019-03-27T22:22:38.636Z,99692.00
2019-03-27T22:25:08.672Z,99687.00
2019-03-27T22:27:37.944Z,99690.00
2019-03-27T22:30:09.521Z,99692.00
2019-03-27T22:32:38.794Z,99694.00
2019-03-27T22:35:08.609Z,99697.00
2019-03-27T22:37:37.881Z,99702.00
2019-03-27T22:40:08.461Z,99702.00
2019-03-27T22:42:37.742Z,99698.00
2019-03-27T22:45:08.010Z,99687.00
2019-03-27T22:47:37.280Z,99690.00
2019-03-27T22:50:08.807Z,99687.00
2019-03-27T22:52:38.209Z,99692.00
2019-03-27T22:55:10.743Z,99686.00
2019-03-27T22:57:40.252Z,99700.00
2019-03-27T23:00:13.971Z,99704.00
2019-03-27T23:02:43.244Z,99704.00
2019-03-27T23:05:12.837Z,99707.00
2019-03-27T23:07:42.110Z,99708.00
2019-03-27T23:10:11.814Z,99715.00
2019-03-27T23:12:41.085Z,99707.00
2019-03-27T23:15:11.393Z,99703.00
2019-03-27T23:17:40.717Z,99711.00
2019-03-27T23:20:11.509Z,99712.00
2019-03-27T23:22:41.112Z,99713.00
2019-03-27T23:25:10.819Z,99711.00
2019-03-27T23:27:40.091Z,99708.00
2019-03-27T23:30:10.159Z,99710.00
2019-03-27T23:32:39.430Z,99708.00
2019-03-27T23:35:10.074Z,99716.00
2019-03-27T23:37:39.343Z,99711.00
2019-03-27T23:40:09.840Z,99711.00
2019-03-27T23:42:39.114Z,99708.00
2019-03-27T23:45:09.615Z,99710.00
2019-03-27T23:47:38.880Z,99702.00
2019-03-27T23:50:11.207Z,99712.00
2019-03-27T23:52:40.812Z,99700.00
2019-03-27T23:55:10.344Z,99703.00
2019-03-27T23:57:39.928Z,99704.00
